Time;durP1;ratioP1;P1;durP2;ratioP2;P2;SDS_P1;SDS_P2;PMS_P1;PMS_P2;Temp;Humidity;BMP_temperature;BMP_pressure;BME280_temperature;BME280_humidity;BME280_pressure;Samples;Min_cycle;Max_cycle;Signal;HPM_P1;HPM_P2
2023/09/09 00:00:56;;;;;;;5.80;4.75;;;21.30;68.80;;;;;;5114656;28;20538;-70
2023/09/09 00:03:22;;;;;;;7.53;6.50;;;21.30;69.00;;;;;;5078796;28;20044;-70
2023/09/09 00:05:49;;;;;;;6.57;5.88;;;21.30;69.20;;;;;;5103303;28;20046;-70
2023/09/09 00:08:16;;;;;;;6.90;6.20;;;21.20;69.30;;;;;;5077094;28;20055;-71
2023/09/09 00:10:42;;;;;;;6.15;5.65;;;21.20;69.30;;;;;;5094381;28;20376;-69
2023/09/09 00:13:09;;;;;;;6.75;6.15;;;21.20;69.30;;;;;;5097232;28;20058;-69
2023/09/09 00:15:35;;;;;;;6.07;5.53;;;21.20;69.30;;;;;;5094012;28;20044;-69
2023/09/09 00:18:02;;;;;;;7.60;6.82;;;21.20;69.40;;;;;;5094259;28;20040;-69
2023/09/09 00:20:40;;;;;;;6.03;5.53;;;21.20;69.50;;;;;;5094491;28;20044;-69
2023/09/09 00:23:09;;;;;;;6.43;5.47;;;21.10;69.40;;;;;;5106837;28;20032;-69
2023/09/09 00:25:39;;;;;;;7.25;6.55;;;21.10;69.50;;;;;;5075814;28;20075;-69
2023/09/09 00:28:05;;;;;;;7.03;6.43;;;21.10;69.60;;;;;;5082788;28;20067;-69
2023/09/09 00:30:31;;;;;;;6.57;5.93;;;21.10;69.70;;;;;;5095128;28;20075;-69
2023/09/09 00:32:58;;;;;;;6.28;5.38;;;21.10;69.80;;;;;;5098638;28;20086;-69
2023/09/09 00:35:24;;;;;;;6.07;5.47;;;21.10;69.80;;;;;;5109574;28;20079;-69
2023/09/09 00:37:50;;;;;;;5.40;4.90;;;21.00;69.70;;;;;;5094723;28;20126;-69
2023/09/09 00:40:15;;;;;;;6.32;5.50;;;21.00;69.70;;;;;;5109642;28;20406;-69
2023/09/09 00:42:41;;;;;;;6.43;5.75;;;21.00;69.80;;;;;;5101822;28;20044;-69
2023/09/09 00:45:07;;;;;;;6.10;5.45;;;21.00;69.70;;;;;;5093262;28;20083;-69
2023/09/09 00:47:34;;;;;;;6.20;5.60;;;20.90;69.70;;;;;;5093222;28;20043;-69
2023/09/09 00:50:00;;;;;;;4.95;4.55;;;20.90;69.90;;;;;;5057554;28;20124;-69
2023/09/09 00:52:27;;;;;;;6.70;5.93;;;20.90;69.90;;;;;;5074252;28;20053;-69
2023/09/09 00:54:53;;;;;;;6.25;5.65;;;20.90;69.90;;;;;;5072771;28;20037;-69
2023/09/09 00:57:19;;;;;;;7.60;6.63;;;20.90;70.00;;;;;;5103792;28;20043;-69
2023/09/09 00:59:46;;;;;;;5.68;5.18;;;20.80;70.00;;;;;;5104392;28;20058;-69
2023/09/09 01:02:12;;;;;;;5.05;4.53;;;20.80;70.00;;;;;;5111532;28;20410;-69
2023/09/09 01:04:38;;;;;;;5.07;4.60;;;20.70;70.00;;;;;;5094336;28;20040;-69
2023/09/09 01:07:04;;;;;;;5.30;4.63;;;20.70;70.10;;;;;;5094109;28;20123;-69
2023/09/09 01:09:31;;;;;;;6.15;5.35;;;20.70;70.10;;;;;;5102118;28;20032;-69
2023/09/09 01:11:58;;;;;;;5.90;5.30;;;20.70;70.10;;;;;;5112785;28;20376;-69
2023/09/09 01:14:24;;;;;;;5.60;5.07;;;20.70;70.10;;;;;;5110821;28;20055;-69
2023/09/09 01:16:52;;;;;;;6.10;5.50;;;20.70;70.20;;;;;;5109007;28;20487;-69
2023/09/09 01:19:21;;;;;;;6.85;6.18;;;20.60;70.20;;;;;;5101334;28;20043;-69
2023/09/09 01:21:47;;;;;;;6.82;6.18;;;20.70;70.40;;;;;;5094317;28;20043;-69
2023/09/09 01:24:15;;;;;;;6.68;6.07;;;20.60;70.30;;;;;;5113142;28;20052;-69
2023/09/09 01:26:42;;;;;;;10.35;9.40;;;20.60;70.30;;;;;;5104949;28;20127;-69
2023/09/09 01:29:08;;;;;;;12.38;11.30;;;20.60;70.50;;;;;;5097876;28;20505;-69
2023/09/09 01:31:33;;;;;;;18.23;16.45;;;20.60;70.60;;;;;;5092718;28;20040;-69
2023/09/09 01:33:59;;;;;;;19.27;17.42;;;20.60;71.20;;;;;;5092350;28;20128;-69
2023/09/09 01:36:25;;;;;;;14.32;12.93;;;20.60;71.80;;;;;;5093278;28;20044;-69
2023/09/09 01:38:50;;;;;;;17.88;16.17;;;20.60;72.00;;;;;;5081886;28;20039;-69
2023/09/09 01:41:16;;;;;;;19.85;18.00;;;20.50;72.30;;;;;;5112720;28;20044;-69
2023/09/09 01:43:42;;;;;;;18.80;16.98;;;20.40;72.60;;;;;;5098289;28;20044;-69
2023/09/09 01:46:07;;;;;;;17.42;15.82;;;20.40;73.00;;;;;;5093951;28;20040;-69
2023/09/09 01:48:33;;;;;;;17.35;15.65;;;20.30;73.00;;;;;;5077109;28;20068;-69
2023/09/09 01:50:59;;;;;;;20.60;18.50;;;20.30;73.20;;;;;;5092167;28;20044;-69
2023/09/09 01:53:24;;;;;;;10.48;9.48;;;20.20;73.60;;;;;;5076332;28;20072;-69
2023/09/09 01:55:50;;;;;;;11.82;10.73;;;20.20;73.70;;;;;;5108246;28;20044;-69
2023/09/09 01:58:16;;;;;;;18.00;16.33;;;20.10;73.70;;;;;;5097888;28;20035;-69
2023/09/09 02:00:42;;;;;;;10.82;9.82;;;20.10;73.90;;;;;;5112284;28;20090;-69
2023/09/09 02:03:08;;;;;;;10.57;9.57;;;20.10;73.90;;;;;;5111048;28;20429;-69
2023/09/09 02:05:34;;;;;;;10.68;9.68;;;20.00;73.70;;;;;;5096072;28;20040;-69
2023/09/09 02:08:00;;;;;;;15.55;14.15;;;20.00;73.60;;;;;;5091801;28;20122;-69
2023/09/09 02:10:26;;;;;;;17.27;15.68;;;20.00;74.10;;;;;;5090976;28;20127;-69
2023/09/09 02:12:52;;;;;;;14.98;13.57;;;20.00;73.70;;;;;;5091714;28;20055;-69
2023/09/09 02:15:17;;;;;;;13.70;12.50;;;20.00;73.80;;;;;;5105919;28;20493;-69
2023/09/09 02:17:45;;;;;;;17.50;15.90;;;19.90;73.80;;;;;;5111752;28;20120;-69
2023/09/09 02:20:11;;;;;;;20.33;18.38;;;19.90;73.90;;;;;;5112039;28;20523;-69
2023/09/09 02:22:37;;;;;;;22.75;20.38;;;19.90;74.10;;;;;;5111982;28;20176;-69
2023/09/09 02:25:03;;;;;;;23.85;21.33;;;19.80;74.50;;;;;;5104979;28;20514;-69
2023/09/09 02:27:29;;;;;;;23.65;21.13;;;19.80;74.70;;;;;;5111699;28;20059;-69
2023/09/09 02:29:55;;;;;;;24.60;22.20;;;19.80;75.00;;;;;;5110423;28;20043;-69
2023/09/09 02:32:21;;;;;;;14.60;13.23;;;19.80;75.20;;;;;;5111966;28;20032;-69
2023/09/09 02:34:46;;;;;;;13.68;12.43;;;19.80;75.10;;;;;;5102757;28;20051;-69
2023/09/09 02:37:22;;;;;;;12.38;11.07;;;19.80;74.70;;;;;;5113098;28;20044;-69
2023/09/09 02:39:49;;;;;;;12.52;11.40;;;19.80;74.10;;;;;;5074491;28;20055;-69
2023/09/09 02:42:17;;;;;;;11.85;10.75;;;19.80;74.00;;;;;;5092626;28;20383;-69
2023/09/09 02:44:43;;;;;;;10.85;9.75;;;19.80;73.70;;;;;;5099273;28;20356;-69
2023/09/09 02:47:12;;;;;;;11.45;10.32;;;19.80;73.50;;;;;;5094111;28;20036;-69
2023/09/09 02:49:38;;;;;;;10.52;9.63;;;19.80;73.30;;;;;;5101385;28;20491;-69
2023/09/09 02:52:05;;;;;;;10.93;9.82;;;19.80;73.10;;;;;;5097536;28;20035;-69
2023/09/09 02:54:31;;;;;;;11.32;10.18;;;19.80;72.90;;;;;;5101161;28;20073;-69
2023/09/09 02:56:57;;;;;;;12.13;11.02;;;19.80;72.80;;;;;;5115740;28;20035;-69
2023/09/09 02:59:23;;;;;;;12.93;11.82;;;19.80;72.60;;;;;;5110017;28;20036;-69
2023/09/09 03:01:49;;;;;;;12.93;11.73;;;19.80;72.50;;;;;;5095272;28;20072;-69
2023/09/09 03:04:15;;;;;;;12.90;11.70;;;19.90;72.50;;;;;;5099034;28;20036;-69
2023/09/09 03:06:41;;;;;;;9.90;8.98;;;19.90;72.40;;;;;;5096469;28;20455;-69
2023/09/09 03:09:06;;;;;;;15.75;14.35;;;19.90;72.30;;;;;;5095038;28;20547;-69
2023/09/09 03:11:32;;;;;;;17.15;15.52;;;19.90;72.30;;;;;;5094861;28;20087;-69
2023/09/09 03:13:59;;;;;;;22.58;20.55;;;19.90;72.40;;;;;;5096013;28;20044;-69
2023/09/09 03:16:24;;;;;;;14.15;12.75;;;19.80;72.50;;;;;;5099767;28;20048;-69
2023/09/09 03:18:50;;;;;;;19.77;17.80;;;19.80;72.70;;;;;;5077933;28;20067;-69
2023/09/09 03:21:16;;;;;;;13.98;12.68;;;19.80;72.70;;;;;;5096610;28;20075;-69
2023/09/09 03:23:42;;;;;;;16.70;15.07;;;19.80;72.80;;;;;;5095214;28;20100;-69
2023/09/09 03:26:09;;;;;;;14.70;13.32;;;19.80;72.80;;;;;;5113785;28;20499;-69
2023/09/09 03:28:35;;;;;;;14.48;13.02;;;19.80;72.80;;;;;;5109852;28;20043;-69
2023/09/09 03:31:01;;;;;;;20.92;18.98;;;19.80;72.80;;;;;;5095010;28;20040;-69
2023/09/09 03:33:27;;;;;;;21.25;19.25;;;19.80;73.00;;;;;;5101020;28;20535;-69
2023/09/09 03:35:53;;;;;;;15.05;13.55;;;19.80;73.10;;;;;;5098104;28;20540;-69
2023/09/09 03:38:19;;;;;;;14.05;12.65;;;19.70;73.00;;;;;;5098307;28;20131;-69
2023/09/09 03:40:45;;;;;;;13.15;11.93;;;19.70;73.00;;;;;;5094607;28;20119;-69
2023/09/09 03:43:12;;;;;;;17.55;15.82;;;19.70;72.90;;;;;;5094366;28;20039;-69
2023/09/09 03:45:38;;;;;;;14.85;13.55;;;19.70;72.90;;;;;;5094595;28;20044;-69
2023/09/09 03:48:04;;;;;;;12.75;11.55;;;19.70;72.70;;;;;;5094428;28;20394;-69
2023/09/09 03:50:31;;;;;;;13.40;12.13;;;19.70;72.60;;;;;;5095618;28;20039;-69
2023/09/09 03:52:56;;;;;;;12.30;11.15;;;19.70;72.30;;;;;;5094463;28;20044;-69
2023/09/09 03:55:22;;;;;;;12.18;10.73;;;19.70;72.10;;;;;;5106592;28;20096;-69
2023/09/09 03:57:48;;;;;;;11.48;10.38;;;19.70;72.00;;;;;;5114859;28;20126;-69
2023/09/09 04:00:14;;;;;;;10.73;9.68;;;19.70;71.80;;;;;;5098077;28;20059;-69
2023/09/09 04:02:40;;;;;;;10.30;9.38;;;19.70;71.50;;;;;;5104854;28;20065;-69
2023/09/09 04:05:07;;;;;;;11.30;10.20;;;19.70;71.40;;;;;;5103641;28;20044;-69
2023/09/09 04:07:35;;;;;;;10.15;9.18;;;19.70;71.20;;;;;;5112650;28;20051;-69
2023/09/09 04:10:05;;;;;;;9.35;8.45;;;19.60;71.10;;;;;;5100271;28;20122;-69
2023/09/09 04:12:30;;;;;;;12.20;11.07;;;19.60;70.90;;;;;;5093240;28;20051;-69
2023/09/09 04:14:56;;;;;;;12.35;11.25;;;19.60;70.50;;;;;;5100537;28;20445;-69
2023/09/09 04:17:22;;;;;;;12.07;10.98;;;19.60;70.20;;;;;;5093913;28;20048;-69
2023/09/09 04:19:48;;;;;;;9.77;8.88;;;19.60;70.20;;;;;;5094093;28;20043;-69
2023/09/09 04:22:14;;;;;;;11.77;10.73;;;19.50;70.40;;;;;;5093982;28;20395;-69
2023/09/09 04:24:40;;;;;;;12.50;11.38;;;19.40;70.60;;;;;;5099399;28;20040;-69
2023/09/09 04:27:05;;;;;;;9.55;8.65;;;19.40;70.70;;;;;;5098584;28;20442;-69
2023/09/09 04:29:31;;;;;;;8.70;7.82;;;19.40;70.90;;;;;;5093671;28;20040;-69
2023/09/09 04:31:57;;;;;;;8.35;7.55;;;19.30;71.10;;;;;;5078033;28;20068;-69
2023/09/09 04:34:23;;;;;;;10.10;9.20;;;19.30;71.20;;;;;;5100647;28;20039;-69
2023/09/09 04:36:49;;;;;;;11.35;10.25;;;19.20;71.30;;;;;;5096999;28;20100;-69
2023/09/09 04:39:15;;;;;;;9.30;8.30;;;19.20;71.30;;;;;;5103028;28;20131;-69
2023/09/09 04:41:44;;;;;;;8.23;7.53;;;19.20;71.50;;;;;;5093471;28;20079;-69
2023/09/09 04:44:10;;;;;;;9.55;8.65;;;19.20;71.50;;;;;;5096335;28;20039;-69
2023/09/09 04:46:36;;;;;;;11.25;10.15;;;19.20;71.60;;;;;;5113713;28;20101;-69
2023/09/09 04:49:03;;;;;;;10.15;9.25;;;19.20;71.60;;;;;;5104732;28;20058;-69
2023/09/09 04:51:30;;;;;;;13.85;11.00;;;19.20;71.60;;;;;;5094607;28;20040;-69
2023/09/09 04:53:56;;;;;;;10.73;9.50;;;19.20;71.70;;;;;;5094143;28;20031;-69
2023/09/09 04:56:21;;;;;;;11.10;10.10;;;19.20;71.70;;;;;;5099919;28;20496;-69
2023/09/09 04:58:47;;;;;;;9.70;8.90;;;19.20;71.60;;;;;;5086012;28;20063;-69
2023/09/09 05:01:13;;;;;;;12.45;11.18;;;19.20;71.50;;;;;;5082844;28;20044;-69
2023/09/09 05:03:38;;;;;;;9.35;8.55;;;19.20;71.40;;;;;;5080449;28;20040;-69
2023/09/09 05:06:04;;;;;;;9.73;8.73;;;19.20;71.10;;;;;;5094956;28;20044;-69
2023/09/09 05:08:30;;;;;;;8.40;7.60;;;19.10;70.90;;;;;;5093001;28;20047;-69
2023/09/09 05:10:56;;;;;;;8.60;7.78;;;19.10;70.80;;;;;;5092100;28;20044;-69
2023/09/09 05:13:22;;;;;;;11.07;10.07;;;19.10;70.90;;;;;;5092028;28;20085;-69
2023/09/09 05:15:47;;;;;;;10.15;9.25;;;19.10;70.90;;;;;;5079690;28;20044;-69
2023/09/09 05:18:13;;;;;;;9.85;8.95;;;19.00;70.90;;;;;;5087614;28;20044;-69
2023/09/09 05:20:39;;;;;;;11.55;9.10;;;19.00;71.20;;;;;;5106599;28;20058;-69
2023/09/09 05:23:04;;;;;;;10.95;9.82;;;19.00;71.30;;;;;;5112740;28;20134;-69
2023/09/09 05:25:30;;;;;;;14.77;13.35;;;19.00;71.30;;;;;;5098857;28;20083;-69
2023/09/09 05:27:56;;;;;;;11.75;10.57;;;19.00;71.30;;;;;;5091388;28;20487;-69
2023/09/09 05:30:21;;;;;;;10.52;9.55;;;19.00;71.30;;;;;;5092655;28;20035;-69
2023/09/09 05:32:47;;;;;;;16.70;14.95;;;19.00;71.40;;;;;;5074886;28;20036;-69
2023/09/09 05:35:13;;;;;;;13.82;12.43;;;19.00;71.70;;;;;;5094748;28;20036;-69
2023/09/09 05:37:42;;;;;;;13.85;12.65;;;19.00;71.90;;;;;;5094782;28;20051;-69
2023/09/09 05:40:09;;;;;;;15.65;14.05;;;19.00;72.10;;;;;;5093677;28;20036;-69
2023/09/09 05:42:35;;;;;;;14.82;13.43;;;18.90;72.00;;;;;;5092769;28;20550;-69
2023/09/09 05:45:03;;;;;;;16.58;14.90;;;18.90;72.20;;;;;;5091290;28;20115;-69
2023/09/09 05:47:29;;;;;;;14.48;13.18;;;18.90;72.30;;;;;;5109785;28;20040;-69
2023/09/09 05:49:55;;;;;;;14.70;13.40;;;18.90;72.50;;;;;;5092108;28;20067;-69
2023/09/09 05:52:21;;;;;;;14.90;13.50;;;19.00;72.70;;;;;;5072256;28;20126;-69
2023/09/09 05:54:46;;;;;;;13.57;12.25;;;19.00;72.90;;;;;;5101250;28;20502;-69
2023/09/09 05:57:12;;;;;;;11.63;10.52;;;19.00;72.90;;;;;;5092304;28;20052;-69
2023/09/09 05:59:38;;;;;;;10.90;10.00;;;19.00;72.90;;;;;;5091422;28;20071;-69
2023/09/09 06:02:05;;;;;;;12.70;11.60;;;19.00;72.80;;;;;;5071801;28;20384;-69
2023/09/09 06:04:31;;;;;;;11.60;10.45;;;19.00;73.10;;;;;;5091274;28;20218;-69
2023/09/09 06:06:57;;;;;;;10.95;9.95;;;19.00;73.70;;;;;;5093331;28;20445;-69
2023/09/09 06:09:23;;;;;;;10.15;9.25;;;19.10;73.90;;;;;;5080107;28;20045;-69
2023/09/09 06:11:50;;;;;;;10.48;9.50;;;19.20;73.60;;;;;;5071459;28;20105;-69
2023/09/09 06:14:16;;;;;;;9.80;8.80;;;19.30;73.60;;;;;;5090682;28;20044;-69
2023/09/09 06:16:42;;;;;;;9.13;8.32;;;19.50;73.30;;;;;;5105536;28;20093;-69
2023/09/09 06:19:08;;;;;;;10.75;9.75;;;19.60;72.90;;;;;;5100360;28;20044;-69
2023/09/09 06:21:33;;;;;;;10.02;9.07;;;19.80;72.70;;;;;;5111326;28;20394;-69
2023/09/09 06:23:59;;;;;;;8.60;7.80;;;19.90;72.10;;;;;;5094034;28;20039;-69
2023/09/09 06:26:30;;;;;;;10.95;9.80;;;20.20;71.80;;;;;;5072426;28;20120;-69
2023/09/09 06:28:56;;;;;;;12.25;11.05;;;20.40;71.40;;;;;;5072682;28;20048;-69
2023/09/09 06:31:22;;;;;;;14.02;10.88;;;20.60;70.90;;;;;;5071454;28;20044;-69
2023/09/09 06:33:47;;;;;;;15.15;11.00;;;20.90;70.40;;;;;;5094635;28;20044;-69
2023/09/09 06:36:13;;;;;;;15.13;11.52;;;21.10;69.80;;;;;;5093070;28;20090;-69
2023/09/09 06:38:39;;;;;;;11.70;10.27;;;21.30;69.20;;;;;;5091270;28;20048;-69
2023/09/09 06:41:05;;;;;;;12.15;10.90;;;21.50;68.80;;;;;;5090835;28;22119;-69
2023/09/09 06:43:30;;;;;;;11.05;9.98;;;21.60;68.50;;;;;;5080652;28;20125;-69
2023/09/09 06:45:59;;;;;;;9.60;8.50;;;21.70;68.30;;;;;;5103860;28;20491;-69
2023/09/09 06:48:25;;;;;;;11.75;10.55;;;21.70;68.30;;;;;;5104250;28;20079;-69
2023/09/09 06:50:51;;;;;;;12.20;11.00;;;21.80;68.50;;;;;;5082851;28;20072;-69
2023/09/09 06:53:17;;;;;;;15.20;13.77;;;21.80;68.60;;;;;;5091956;28;20422;-69
2023/09/09 06:55:47;;;;;;;14.52;13.10;;;21.90;68.90;;;;;;5094314;28;20054;-70
2023/09/09 06:58:13;;;;;;;13.40;12.20;;;21.90;68.70;;;;;;5092580;28;20036;-70
2023/09/09 07:00:39;;;;;;;13.98;12.68;;;22.00;68.70;;;;;;5091686;28;20048;-69
2023/09/09 07:03:07;;;;;;;18.05;16.45;;;22.00;68.60;;;;;;5091770;28;20043;-70
2023/09/09 07:05:33;;;;;;;17.90;16.15;;;22.10;69.30;;;;;;5093592;28;20386;-70
2023/09/09 07:07:59;;;;;;;19.00;17.30;;;22.10;69.90;;;;;;5107281;28;20050;-70
2023/09/09 07:10:25;;;;;;;22.50;20.42;;;22.20;70.40;;;;;;5091368;28;20040;-70
2023/09/09 07:12:52;;;;;;;26.83;24.33;;;22.20;70.70;;;;;;5094736;28;20118;-70
2023/09/09 07:15:18;;;;;;;31.02;28.05;;;22.20;70.80;;;;;;5111307;28;20119;-70
2023/09/09 07:17:47;;;;;;;32.28;29.30;;;22.20;71.30;;;;;;5099387;28;20128;-70
2023/09/09 07:20:13;;;;;;;26.70;24.30;;;22.20;71.70;;;;;;5093699;28;20044;-70
2023/09/09 07:22:39;;;;;;;23.17;21.08;;;22.30;71.90;;;;;;5098058;28;20521;-70
2023/09/09 07:25:06;;;;;;;24.92;22.52;;;22.30;72.00;;;;;;5103104;28;20039;-70
2023/09/09 07:27:32;;;;;;;22.20;20.10;;;22.30;71.90;;;;;;5099173;28;20066;-70
2023/09/09 07:29:58;;;;;;;21.17;19.13;;;22.30;71.70;;;;;;5091453;28;20135;-70
2023/09/09 07:32:23;;;;;;;22.17;19.83;;;22.30;71.60;;;;;;5096220;28;20523;-70
2023/09/09 07:34:49;;;;;;;25.25;22.95;;;22.30;71.20;;;;;;5094630;28;20040;-70
2023/09/09 07:37:15;;;;;;;26.45;23.92;;;22.40;71.20;;;;;;5085422;28;20428;-69
2023/09/09 07:39:46;;;;;;;29.83;27.13;;;22.40;71.50;;;;;;5086809;28;20048;-70
2023/09/09 07:42:15;;;;;;;35.25;31.98;;;22.50;72.00;;;;;;5078783;28;20044;-70
2023/09/09 07:44:41;;;;;;;29.42;26.52;;;22.50;72.60;;;;;;5094271;28;20040;-69
2023/09/09 07:47:08;;;;;;;33.60;30.50;;;22.60;72.90;;;;;;5094512;28;20516;-69
2023/09/09 07:49:34;;;;;;;34.13;30.60;;;22.70;72.70;;;;;;5094186;28;20087;-69
2023/09/09 07:52:00;;;;;;;37.15;33.55;;;22.70;73.20;;;;;;5095634;28;20412;-69
2023/09/09 07:54:26;;;;;;;36.53;32.95;;;22.90;73.70;;;;;;5103806;28;20091;-70
2023/09/09 07:56:53;;;;;;;40.28;36.38;;;23.00;73.70;;;;;;5092948;28;20118;-70
2023/09/09 07:59:18;;;;;;;38.95;32.95;;;23.10;73.70;;;;;;5095087;28;20043;-69
2023/09/09 08:01:45;;;;;;;40.88;36.67;;;23.30;73.40;;;;;;5113685;28;20039;-69
2023/09/09 08:04:10;;;;;;;36.00;32.50;;;23.50;73.30;;;;;;5101354;28;20046;-69
2023/09/09 08:06:36;;;;;;;37.08;33.30;;;23.70;72.80;;;;;;5100612;28;20454;-69
2023/09/09 08:09:02;;;;;;;38.25;34.58;;;24.00;72.50;;;;;;5093992;28;20155;-69
2023/09/09 08:11:28;;;;;;;34.85;31.58;;;24.20;71.70;;;;;;5093315;28;20073;-69
2023/09/09 08:13:54;;;;;;;36.42;32.72;;;24.50;71.40;;;;;;5071914;28;20060;-70
2023/09/09 08:16:19;;;;;;;37.80;34.20;;;24.70;70.70;;;;;;5095858;28;20455;-69
2023/09/09 08:18:45;;;;;;;31.95;28.75;;;25.00;70.30;;;;;;5102631;28;20463;-69
2023/09/09 08:21:12;;;;;;;33.28;29.95;;;25.30;69.20;;;;;;5095244;28;20052;-69
2023/09/09 08:23:39;;;;;;;29.75;26.90;;;25.60;68.50;;;;;;5092890;28;20051;-69
2023/09/09 08:26:05;;;;;;;31.08;28.17;;;25.80;67.20;;;;;;5109068;28;20407;-70
2023/09/09 08:28:30;;;;;;;33.25;29.98;;;26.20;66.80;;;;;;5113844;28;20039;-70
2023/09/09 08:31:00;;;;;;;30.75;27.67;;;26.40;66.60;;;;;;5114257;28;20058;-70
2023/09/09 08:33:26;;;;;;;31.42;28.27;;;26.60;65.40;;;;;;5110691;28;20149;-70
2023/09/09 08:36:01;;;;;;;32.10;28.85;;;26.80;65.10;;;;;;5100913;28;20044;-70
2023/09/09 08:38:26;;;;;;;29.35;26.58;;;27.10;64.90;;;;;;5096783;28;20075;-70
2023/09/09 08:41:18;;;;;;;31.58;28.48;;;27.30;64.30;;;;;;5079808;28;20091;-70
2023/09/09 08:43:56;;;;;;;27.15;24.65;;;27.50;63.40;;;;;;5072939;28;20040;-70
2023/09/09 08:46:22;;;;;;;30.35;27.55;;;27.70;62.40;;;;;;5072514;28;20080;-70
2023/09/09 08:48:52;;;;;;;29.65;27.00;;;28.00;62.30;;;;;;5075261;28;20086;-70
2023/09/09 08:51:28;;;;;;;28.17;25.52;;;28.20;61.60;;;;;;5077488;28;20036;-70
2023/09/09 08:53:56;;;;;;;29.02;26.23;;;28.40;61.00;;;;;;5076866;28;20037;-71
2023/09/09 08:56:23;;;;;;;29.58;26.67;;;28.60;60.40;;;;;;5076711;28;20241;-70
2023/09/09 08:58:49;;;;;;;29.95;27.13;;;28.80;60.10;;;;;;5078724;28;20040;-70
2023/09/09 09:01:16;;;;;;;33.15;29.88;;;28.90;59.30;;;;;;5076906;28;20398;-70
2023/09/09 09:03:44;;;;;;;32.72;29.42;;;29.10;59.30;;;;;;5076972;28;20390;-70
2023/09/09 09:06:10;;;;;;;34.58;31.25;;;29.30;59.20;;;;;;5079129;28;20465;-70
2023/09/09 09:08:36;;;;;;;31.63;28.67;;;29.40;59.10;;;;;;5078191;28;20043;-70
2023/09/09 09:11:03;;;;;;;31.42;28.52;;;29.50;58.60;;;;;;5078311;28;20037;-71
2023/09/09 09:13:33;;;;;;;32.60;29.60;;;29.60;58.20;;;;;;5083994;28;20050;-70
2023/09/09 09:16:00;;;;;;;30.60;27.67;;;29.80;58.00;;;;;;5092494;28;20040;-70
2023/09/09 09:18:26;;;;;;;31.05;27.90;;;29.90;57.40;;;;;;5092662;28;20083;-70
2023/09/09 09:20:53;;;;;;;27.52;25.02;;;30.00;57.10;;;;;;5092649;28;20043;-70
2023/09/09 09:23:19;;;;;;;30.98;28.15;;;30.10;56.90;;;;;;5092592;28;20487;-70
2023/09/09 09:25:47;;;;;;;25.98;23.55;;;30.20;56.10;;;;;;5092488;28;20050;-70
2023/09/09 09:28:14;;;;;;;26.40;23.90;;;30.30;55.70;;;;;;5092114;28;20040;-70
2023/09/09 09:30:40;;;;;;;26.73;24.10;;;30.30;55.30;;;;;;5086928;28;20036;-70
2023/09/09 09:33:06;;;;;;;23.75;21.63;;;30.40;55.20;;;;;;5073565;28;20377;-70
2023/09/09 09:35:34;;;;;;;24.33;22.02;;;30.40;55.00;;;;;;5072484;28;20044;-70
2023/09/09 09:38:09;;;;;;;23.02;21.02;;;30.40;54.80;;;;;;5072447;28;20083;-70
2023/09/09 09:40:35;;;;;;;22.00;20.00;;;30.50;54.90;;;;;;5073852;28;20195;-70
2023/09/09 09:43:01;;;;;;;22.73;20.58;;;30.60;54.70;;;;;;5092351;28;20390;-70
2023/09/09 09:45:29;;;;;;;20.90;18.88;;;30.60;54.50;;;;;;5098669;28;20096;-70
2023/09/09 09:47:57;;;;;;;22.13;20.13;;;30.60;54.30;;;;;;5112483;28;20051;-70
2023/09/09 09:50:32;;;;;;;21.30;19.30;;;30.70;54.00;;;;;;5103571;28;20540;-70
2023/09/09 09:53:00;;;;;;;20.08;18.27;;;30.70;53.80;;;;;;5090516;28;20044;-70
2023/09/09 09:55:27;;;;;;;20.20;18.10;;;30.80;54.10;;;;;;5111966;28;20047;-70
2023/09/09 09:57:55;;;;;;;17.25;15.75;;;30.80;53.90;;;;;;5112344;28;20095;-70
2023/09/09 10:00:22;;;;;;;19.38;17.63;;;30.80;53.40;;;;;;5112220;28;20479;-70
2023/09/09 10:02:52;;;;;;;19.15;17.45;;;30.80;53.40;;;;;;5092111;28;20506;-70
2023/09/09 10:05:21;;;;;;;17.42;15.90;;;30.90;53.20;;;;;;5108952;28;20594;-70
2023/09/09 10:07:52;;;;;;;17.17;15.50;;;30.90;53.50;;;;;;5095371;28;20047;-70
2023/09/09 10:10:21;;;;;;;14.50;13.18;;;30.90;53.70;;;;;;5112513;28;20039;-69
2023/09/09 10:13:03;;;;;;;15.30;13.88;;;30.90;53.50;;;;;;5112286;28;20048;-69
2023/09/09 10:15:32;;;;;;;14.70;13.17;;;31.00;53.20;;;;;;5112103;28;20047;-69
2023/09/09 10:17:59;;;;;;;11.60;10.45;;;31.00;53.10;;;;;;5108741;28;20066;-71
2023/09/09 10:20:26;;;;;;;9.40;8.50;;;31.00;52.40;;;;;;5112168;28;20039;-71
2023/09/09 10:22:59;;;;;;;11.43;10.40;;;31.00;51.60;;;;;;5112085;28;20552;-71
2023/09/09 10:25:32;;;;;;;11.52;10.52;;;31.10;51.60;;;;;;5112089;28;20043;-71
2023/09/09 10:27:58;;;;;;;12.68;11.38;;;31.10;51.80;;;;;;5111977;28;20066;-69
2023/09/09 10:30:24;;;;;;;12.10;10.90;;;31.20;51.70;;;;;;5099445;28;20036;-69
2023/09/09 10:32:50;;;;;;;9.80;8.90;;;31.20;51.60;;;;;;5091789;28;20070;-69
2023/09/09 10:35:18;;;;;;;9.10;8.20;;;31.20;51.50;;;;;;5091777;28;20567;-69
2023/09/09 10:37:44;;;;;;;9.50;8.05;;;31.20;51.30;;;;;;5091823;28;20044;-69
2023/09/09 10:40:11;;;;;;;9.38;8.48;;;31.30;51.20;;;;;;5091583;28;20093;-69
2023/09/09 10:42:39;;;;;;;9.75;8.45;;;31.30;51.00;;;;;;5091676;28;20498;-69
2023/09/09 10:45:32;;;;;;;8.30;7.50;;;31.30;50.50;;;;;;5090513;28;20044;-69
2023/09/09 10:48:03;;;;;;;7.65;6.95;;;31.40;50.30;;;;;;5075456;28;20048;-70
2023/09/09 10:50:53;;;;;;;10.40;9.43;;;31.30;50.20;;;;;;5091663;28;20035;-71
2023/09/09 10:53:29;;;;;;;8.73;7.82;;;31.40;50.10;;;;;;5091626;28;20044;-71
2023/09/09 10:55:55;;;;;;;10.88;9.85;;;31.40;50.30;;;;;;5092865;28;20082;-71
2023/09/09 10:58:35;;;;;;;8.13;7.35;;;31.40;49.80;;;;;;5090708;28;20189;-70
2023/09/09 11:01:02;;;;;;;9.07;6.97;;;31.50;49.90;;;;;;5074614;28;20044;-70
2023/09/09 11:03:39;;;;;;;8.65;7.63;;;31.40;49.80;;;;;;5091485;28;20052;-70
2023/09/09 11:06:06;;;;;;;9.60;8.65;;;31.50;49.30;;;;;;5092449;28;20040;-70
2023/09/09 11:08:41;;;;;;;7.93;7.13;;;31.50;48.40;;;;;;5091146;28;20554;-70
2023/09/09 11:11:16;;;;;;;9.25;7.85;;;31.50;48.40;;;;;;5091721;28;20028;-69
2023/09/09 11:14:04;;;;;;;7.82;7.05;;;31.50;48.50;;;;;;5095393;28;20048;-70
2023/09/09 11:16:31;;;;;;;7.05;6.35;;;31.50;48.10;;;;;;5094643;28;20043;-70
2023/09/09 11:19:04;;;;;;;8.18;7.13;;;31.50;48.30;;;;;;5096474;28;20058;-70
2023/09/09 11:21:35;;;;;;;9.00;8.10;;;31.50;47.90;;;;;;5101651;28;20046;-71
2023/09/09 11:24:02;;;;;;;9.73;7.60;;;31.50;48.20;;;;;;5106325;28;20048;-71
2023/09/09 11:26:28;;;;;;;9.85;7.47;;;31.50;47.90;;;;;;5095284;28;20044;-72
2023/09/09 11:28:55;;;;;;;8.68;7.18;;;31.50;47.60;;;;;;5094873;28;20074;-72
2023/09/09 11:31:21;;;;;;;8.05;7.32;;;31.50;47.20;;;;;;5094718;28;20119;-72
2023/09/09 11:33:47;;;;;;;6.57;5.57;;;31.50;46.50;;;;;;5095085;28;20437;-71
2023/09/09 11:36:17;;;;;;;6.32;5.63;;;31.50;47.40;;;;;;5094811;28;20044;-71
2023/09/09 11:38:43;;;;;;;7.03;6.32;;;31.60;47.20;;;;;;5101312;28;20181;-71
2023/09/09 11:41:16;;;;;;;8.88;7.45;;;31.60;47.20;;;;;;5094679;28;20104;-71
2023/09/09 11:43:42;;;;;;;6.65;5.97;;;31.60;46.50;;;;;;5094834;28;20062;-71
2023/09/09 11:46:07;;;;;;;8.20;6.93;;;31.60;46.20;;;;;;5077831;28;20399;-71
2023/09/09 11:48:33;;;;;;;7.25;6.55;;;31.60;46.10;;;;;;5094623;28;20074;-72
2023/09/09 11:51:00;;;;;;;9.27;7.47;;;31.60;46.40;;;;;;5086660;28;20044;-72
2023/09/09 11:53:25;;;;;;;7.05;6.35;;;31.60;46.70;;;;;;5083789;28;20062;-72
2023/09/09 11:55:53;;;;;;;8.95;7.80;;;31.60;46.90;;;;;;5114194;28;20040;-71
2023/09/09 11:58:19;;;;;;;8.10;7.30;;;31.60;46.50;;;;;;5114789;28;20119;-71
2023/09/09 12:00:45;;;;;;;7.70;6.63;;;31.60;46.30;;;;;;5115016;28;20043;-72
2023/09/09 12:03:19;;;;;;;6.70;6.10;;;31.60;46.30;;;;;;5108229;28;20537;-72
2023/09/09 12:05:46;;;;;;;7.72;6.93;;;31.60;46.80;;;;;;5093780;28;20454;-72
2023/09/09 12:08:13;;;;;;;9.32;8.10;;;31.60;46.40;;;;;;5109703;28;20383;-72
2023/09/09 12:10:39;;;;;;;7.82;7.00;;;31.70;46.70;;;;;;5114889;28;20039;-72
2023/09/09 12:13:05;;;;;;;7.60;6.78;;;31.70;47.00;;;;;;5114556;28;20067;-72
2023/09/09 12:15:31;;;;;;;9.75;8.15;;;31.70;46.70;;;;;;5114181;28;20121;-72
2023/09/09 12:17:57;;;;;;;7.40;6.70;;;31.70;46.60;;;;;;5114454;28;20047;-72
2023/09/09 12:20:23;;;;;;;8.18;6.03;;;31.70;46.90;;;;;;5083865;28;20086;-72
2023/09/09 12:22:51;;;;;;;7.78;7.00;;;31.70;47.00;;;;;;5095209;28;20076;-72
2023/09/09 12:25:32;;;;;;;9.13;7.82;;;31.70;46.90;;;;;;5094203;28;20043;-72
2023/09/09 12:27:59;;;;;;;7.78;7.05;;;31.80;46.90;;;;;;5093392;28;20070;-72
2023/09/09 12:30:35;;;;;;;7.30;6.60;;;31.70;46.80;;;;;;5093784;28;20032;-72
2023/09/09 12:33:09;;;;;;;9.68;8.00;;;31.70;46.80;;;;;;5104153;28;20036;-72